Time;durP1;ratioP1;P1;durP2;ratioP2;P2;SDS_P1;SDS_P2;PMS_P1;PMS_P2;Temp;Humidity;BMP_temperature;BMP_pressure;BME280_temperature;BME280_humidity;BME280_pressure;Samples;Min_cycle;Max_cycle;Signal;HPM_P1;HPM_P2
2022/08/06 00:01:50;;;;;;;17.80;9.73;;;;;22.10;99270.00;;;;4986573;28;87810;-60
2022/08/06 00:04:18;;;;;;;14.35;9.25;;;21.90;99.90;22.10;99269.00;;;;4999183;28;88034;-60
2022/08/06 00:06:44;;;;;;;14.63;9.15;;;;;22.00;99272.00;;;;4987512;28;87269;-60
2022/08/06 00:09:11;;;;;;;16.77;9.40;;;22.00;99.90;22.00;99266.00;;;;4994182;28;86990;-60
2022/08/06 00:11:39;;;;;;;13.77;9.20;;;21.70;99.90;22.00;99273.00;;;;4999785;28;87664;-60
2022/08/06 00:14:06;;;;;;;16.75;10.68;;;;;22.00;99265.00;;;;4986094;28;89662;-60
2022/08/06 00:16:32;;;;;;;13.98;8.80;;;21.70;99.90;21.90;99266.00;;;;4996014;28;88130;-60
2022/08/06 00:18:58;;;;;;;12.77;8.98;;;21.70;99.90;21.90;99263.00;;;;4988234;28;87200;-60
2022/08/06 00:21:25;;;;;;;15.82;9.45;;;22.00;99.90;21.90;99267.00;;;;4985956;28;87247;-60
2022/08/06 00:23:51;;;;;;;16.25;9.57;;;21.50;99.90;21.90;99276.00;;;;4980300;28;88618;-60
2022/08/06 00:26:17;;;;;;;15.80;9.02;;;21.70;99.90;21.90;99263.00;;;;4990910;28;87480;-60
2022/08/06 00:28:43;;;;;;;14.30;9.10;;;;;21.90;99267.00;;;;4994168;28;87628;-60
2022/08/06 00:31:10;;;;;;;18.95;9.55;;;21.50;99.90;21.90;99266.00;;;;4995747;28;87107;-60
2022/08/06 00:33:37;;;;;;;16.65;9.88;;;21.70;99.90;21.90;99268.00;;;;4988606;28;87046;-60
2022/08/06 00:36:04;;;;;;;15.50;9.32;;;22.10;99.90;22.00;99264.00;;;;4992273;28;87876;-60
2022/08/06 00:38:30;;;;;;;19.08;9.45;;;;;22.00;99269.00;;;;4995866;28;87943;-60
2022/08/06 00:40:57;;;;;;;13.35;9.40;;;21.60;99.90;22.00;99270.00;;;;4996162;28;87008;-61
2022/08/06 00:43:23;;;;;;;17.42;9.90;;;21.70;99.90;22.00;99269.00;;;;4990939;28;87547;-60
2022/08/06 00:45:50;;;;;;;15.30;8.70;;;;;22.00;99268.00;;;;4993699;28;87283;-60
2022/08/06 00:48:16;;;;;;;14.25;9.70;;;;;22.10;99267.00;;;;4993042;28;87381;-67
2022/08/06 00:50:43;;;;;;;12.70;9.40;;;;;22.10;99273.00;;;;4994934;28;87001;-61
2022/08/06 00:53:09;;;;;;;17.50;9.43;;;22.30;99.90;22.10;99272.00;;;;4997138;28;87553;-60
2022/08/06 00:55:35;;;;;;;15.77;9.88;;;21.70;99.90;22.10;99270.00;;;;4999684;28;87341;-60
2022/08/06 00:58:03;;;;;;;13.85;8.60;;;;;22.10;99279.00;;;;4996986;28;87136;-60
2022/08/06 01:00:29;;;;;;;13.20;8.20;;;;;22.10;99278.00;;;;4990661;28;87465;-60
2022/08/06 01:02:55;;;;;;;17.38;9.48;;;;;22.00;99273.00;;;;4995418;28;88506;-67
2022/08/06 01:05:22;;;;;;;14.13;9.00;;;;;22.10;99266.00;;;;4997854;28;88063;-67
2022/08/06 01:07:48;;;;;;;12.75;9.32;;;22.00;99.90;22.00;99273.00;;;;4994056;28;87393;-67
2022/08/06 01:10:14;;;;;;;15.45;9.02;;;;;22.00;99265.00;;;;4993242;28;87482;-60
2022/08/06 01:12:41;;;;;;;18.30;10.02;;;;;21.90;99268.00;;;;4992835;28;86926;-67
2022/08/06 01:15:08;;;;;;;17.38;10.15;;;21.70;99.90;21.90;99273.00;;;;4994591;28;87321;-67
2022/08/06 01:17:41;;;;;;;11.27;8.43;;;21.70;99.90;21.90;99281.00;;;;4992983;28;86896;-67
2022/08/06 01:20:21;;;;;;;17.85;8.57;;;21.60;99.90;21.90;99267.00;;;;4994303;28;86402;-67
2022/08/06 01:23:11;;;;;;;18.27;8.73;;;21.60;99.90;21.90;99279.00;;;;4994609;28;87556;-67
2022/08/06 01:26:01;;;;;;;12.50;9.15;;;21.30;99.90;21.80;99276.00;;;;4991883;28;87391;-67
2022/08/06 01:28:42;;;;;;;15.50;8.85;;;21.40;99.90;21.80;99278.00;;;;4992491;28;87800;-67
2022/08/06 01:31:26;;;;;;;12.15;9.50;;;21.70;99.90;21.90;99279.00;;;;4990745;28;87106;-67
2022/08/06 01:33:59;;;;;;;17.05;9.40;;;21.70;99.90;22.00;99272.00;;;;4979572;28;88887;-60
2022/08/06 01:36:42;;;;;;;15.55;9.98;;;22.00;99.90;21.90;99268.00;;;;4974072;28;88545;-60
2022/08/06 01:39:12;;;;;;;13.07;9.35;;;21.60;99.90;21.90;99275.00;;;;4995569;28;88156;-60
2022/08/06 01:41:45;;;;;;;16.27;9.88;;;21.30;99.90;21.80;99282.00;;;;4990283;28;86997;-60
2022/08/06 01:44:19;;;;;;;17.38;10.30;;;21.70;99.90;21.80;99285.00;;;;4993977;28;88504;-60
2022/08/06 01:46:51;;;;;;;14.23;9.65;;;21.40;99.90;21.70;99287.00;;;;4989887;28;87259;-60
2022/08/06 01:49:29;;;;;;;14.70;9.20;;;21.40;99.90;21.60;99283.00;;;;4998392;28;87650;-60
2022/08/06 01:51:59;;;;;;;14.88;9.32;;;21.30;99.90;21.60;99278.00;;;;4992071;28;87188;-60
2022/08/06 01:54:29;;;;;;;15.07;9.43;;;21.40;99.90;21.60;99281.00;;;;4986068;28;89561;-60
2022/08/06 01:56:57;;;;;;;13.48;9.27;;;21.00;99.90;21.60;99274.00;;;;4983965;28;89529;-60
2022/08/06 01:59:35;;;;;;;13.98;9.75;;;21.30;99.90;21.60;99278.00;;;;4993201;28;86928;-60
2022/08/06 02:02:06;;;;;;;17.60;9.45;;;21.40;99.90;21.60;99277.00;;;;4989022;28;86967;-60
2022/08/06 02:04:38;;;;;;;14.95;9.60;;;21.40;99.90;21.70;99288.00;;;;4992280;28;88629;-60
2022/08/06 02:07:08;;;;;;;17.45;10.20;;;21.50;99.90;21.70;99287.00;;;;4992110;28;88005;-60
2022/08/06 02:09:37;;;;;;;18.23;10.77;;;21.60;99.90;21.80;99284.00;;;;4985070;28;87324;-60
2022/08/06 02:12:11;;;;;;;19.42;11.30;;;22.20;99.90;21.90;99273.00;;;;4993956;28;86280;-60
2022/08/06 02:15:12;;;;;;;21.35;11.55;;;21.30;99.90;21.90;99283.00;;;;4987095;28;88272;-61
2022/08/06 02:17:50;;;;;;;22.67;12.00;;;21.60;99.90;22.00;99291.00;;;;4988393;28;87599;-60
2022/08/06 02:20:23;;;;;;;24.80;12.25;;;21.70;99.90;22.00;99292.00;;;;4998325;28;88170;-60
2022/08/06 02:22:50;;;;;;;22.08;12.23;;;;;22.00;99292.00;;;;4982913;28;87160;-60
2022/08/06 02:25:17;;;;;;;25.10;13.27;;;21.60;99.90;21.90;99282.00;;;;4980255;28;87783;-60
2022/08/06 02:27:52;;;;;;;25.17;13.40;;;21.90;99.90;21.80;99289.00;;;;4992119;28;88664;-60
2022/08/06 02:30:19;;;;;;;25.35;13.32;;;21.50;99.90;21.80;99289.00;;;;4994374;28;86981;-60
2022/08/06 02:32:45;;;;;;;23.80;13.57;;;21.40;99.90;21.70;99286.00;;;;4988658;28;87026;-60
2022/08/06 02:35:12;;;;;;;21.65;12.77;;;21.20;99.90;21.70;99296.00;;;;4993154;28;88421;-60
2022/08/06 02:37:55;;;;;;;18.45;12.93;;;21.80;99.90;21.60;99276.00;;;;4992210;28;87453;-60
2022/08/06 02:40:28;;;;;;;31.27;12.88;;;21.30;99.90;21.60;99287.00;;;;4997785;28;87027;-60
2022/08/06 02:43:16;;;;;;;22.10;12.60;;;21.40;99.90;21.70;99290.00;;;;4993896;28;87774;-60
2022/08/06 02:45:57;;;;;;;18.77;12.48;;;21.60;99.90;21.90;99298.00;;;;4992854;28;88566;-60
2022/08/06 02:48:32;;;;;;;25.08;12.77;;;21.80;99.90;22.20;99296.00;;;;4982358;28;89533;-60
2022/08/06 02:51:01;;;;;;;19.42;12.50;;;21.60;99.90;22.30;99291.00;;;;4985413;28;87313;-60
2022/08/06 02:53:42;;;;;;;17.23;11.27;;;21.90;99.90;22.20;99287.00;;;;4991735;28;87128;-60
2022/08/06 02:56:12;;;;;;;24.88;12.45;;;21.70;99.90;22.10;99295.00;;;;4982820;28;88831;-60
2022/08/06 02:58:46;;;;;;;25.52;11.93;;;21.70;99.90;22.00;99285.00;;;;4984512;28;88332;-60
2022/08/06 03:01:19;;;;;;;21.73;12.50;;;21.60;99.90;21.90;99287.00;;;;4987820;28;87029;-60
2022/08/06 03:03:48;;;;;;;28.40;11.63;;;21.80;99.90;21.90;99284.00;;;;5001059;28;86458;-60
2022/08/06 03:06:17;;;;;;;19.92;11.85;;;21.50;99.90;21.80;99289.00;;;;4991004;28;87577;-60
2022/08/06 03:08:45;;;;;;;18.05;12.27;;;21.50;99.90;21.80;99289.00;;;;4993986;28;88545;-60
2022/08/06 03:11:13;;;;;;;15.48;11.30;;;21.60;99.90;21.90;99279.00;;;;4993598;28;88113;-60
2022/08/06 03:13:41;;;;;;;23.95;12.45;;;21.80;99.90;22.20;99284.00;;;;4997140;28;87236;-60
2022/08/06 03:16:08;;;;;;;21.38;11.77;;;;;22.50;99291.00;;;;4986723;28;87666;-60
2022/08/06 03:18:36;;;;;;;20.77;11.60;;;22.60;99.90;23.00;99281.00;;;;4990522;28;88507;-60
2022/08/06 03:21:04;;;;;;;19.88;11.65;;;23.00;99.90;23.50;99288.00;;;;4986122;28;87042;-60
2022/08/06 03:23:32;;;;;;;14.55;11.13;;;23.40;99.90;23.90;99291.00;;;;5000122;28;87094;-60
2022/08/06 03:26:00;;;;;;;20.17;10.40;;;23.80;99.90;24.40;99282.00;;;;4988199;28;87500;-60
2022/08/06 03:28:27;;;;;;;17.25;10.73;;;;;24.70;99282.00;;;;4991606;28;87413;-60
2022/08/06 03:30:54;;;;;;;20.70;10.23;;;24.40;99.90;24.90;99276.00;;;;4973100;28;87176;-60
2022/08/06 03:33:21;;;;;;;21.10;10.48;;;;;25.20;99280.00;;;;4990211;28;87059;-60
2022/08/06 03:35:48;;;;;;;17.90;10.45;;;24.90;99.90;25.50;99272.00;;;;4987032;28;88840;-60
2022/08/06 03:38:15;;;;;;;12.98;9.85;;;25.20;99.90;25.60;99278.00;;;;4995606;28;88342;-60
2022/08/06 03:40:44;;;;;;;20.05;10.13;;;25.00;99.90;25.80;99279.00;;;;4996664;28;87045;-60
2022/08/06 03:43:11;;;;;;;22.55;10.70;;;;;26.00;99283.00;;;;4973771;28;86992;-60
2022/08/06 03:45:45;;;;;;;18.30;10.77;;;25.70;99.90;26.30;99290.00;;;;4992886;28;87474;-67
2022/08/06 03:48:15;;;;;;;19.42;10.73;;;25.80;99.90;26.40;99281.00;;;;4985632;28;87285;-68
2022/08/06 03:50:45;;;;;;;18.05;10.40;;;26.00;99.90;26.50;99291.00;;;;4999820;28;86930;-68
2022/08/06 03:53:19;;;;;;;14.52;11.55;;;25.90;99.90;26.40;99287.00;;;;4992900;28;86316;-68
2022/08/06 03:55:47;;;;;;;24.58;13.07;;;25.80;99.90;26.40;99279.00;;;;4998290;28;87345;-66
2022/08/06 03:58:15;;;;;;;21.33;12.93;;;26.00;99.90;26.50;99282.00;;;;4995626;28;87688;-67
2022/08/06 04:00:59;;;;;;;24.27;12.93;;;26.10;99.90;26.70;99285.00;;;;4992621;28;88007;-66
2022/08/06 04:03:26;;;;;;;18.25;11.10;;;26.40;99.90;27.00;99295.00;;;;4984506;28;87423;-68
2022/08/06 04:05:54;;;;;;;18.13;10.85;;;26.60;99.90;27.20;99289.00;;;;4987667;28;87693;-68
2022/08/06 04:08:21;;;;;;;16.17;11.50;;;26.60;99.90;27.30;99293.00;;;;4988984;28;87540;-67
2022/08/06 04:10:49;;;;;;;19.98;11.55;;;26.50;99.90;27.40;99300.00;;;;4988374;28;87002;-68
2022/08/06 04:13:19;;;;;;;18.73;11.35;;;26.70;99.90;27.40;99295.00;;;;4985603;28;86913;-68
2022/08/06 04:15:46;;;;;;;22.67;10.63;;;26.70;99.90;27.40;99300.00;;;;4987418;28;88718;-67
2022/08/06 04:18:20;;;;;;;17.58;10.57;;;26.80;99.90;27.40;99308.00;;;;4989363;28;88524;-68
2022/08/06 04:20:49;;;;;;;19.70;11.13;;;26.80;99.90;27.40;99300.00;;;;4995045;28;86842;-68
2022/08/06 04:23:16;;;;;;;17.48;10.00;;;;;27.60;99305.00;;;;4991200;28;87127;-68
2022/08/06 04:25:54;;;;;;;14.27;9.90;;;26.80;99.90;27.80;99308.00;;;;4994369;28;89063;-68
2022/08/06 04:28:24;;;;;;;14.15;10.10;;;27.70;99.90;27.80;99298.00;;;;4989296;28;88220;-67
2022/08/06 04:30:52;;;;;;;17.15;10.43;;;27.30;99.90;28.20;99308.00;;;;4980927;28;87089;-68
2022/08/06 04:33:22;;;;;;;16.02;10.00;;;27.70;99.90;28.40;99289.00;;;;4991375;28;87281;-68
2022/08/06 04:35:48;;;;;;;21.67;10.30;;;;;28.40;99298.00;;;;4989846;28;89076;-68
2022/08/06 04:38:17;;;;;;;18.42;9.93;;;27.70;99.90;28.40;99304.00;;;;4988763;28;87482;-67
2022/08/06 04:40:44;;;;;;;16.45;10.38;;;;;28.60;99306.00;;;;4989147;28;87958;-68
2022/08/06 04:43:11;;;;;;;16.67;10.52;;;27.90;99.90;28.80;99291.00;;;;4993663;28;86176;-67
2022/08/06 04:45:41;;;;;;;22.38;11.68;;;28.10;99.90;28.90;99305.00;;;;4963133;28;90177;-68
2022/08/06 04:48:10;;;;;;;14.65;10.55;;;28.10;99.90;28.90;99306.00;;;;4984134;28;87518;-68
2022/08/06 04:50:38;;;;;;;20.33;10.82;;;28.20;99.90;29.10;99285.00;;;;4982920;28;88323;-68
2022/08/06 04:53:07;;;;;;;15.23;10.50;;;28.40;99.90;29.20;99291.00;;;;4995228;28;87846;-68
2022/08/06 04:55:34;;;;;;;13.48;9.98;;;;;29.30;99294.00;;;;4986381;28;87695;-68
2022/08/06 04:58:06;;;;;;;18.45;9.70;;;28.50;99.90;29.30;99295.00;;;;4986845;28;87323;-68
2022/08/06 05:00:36;;;;;;;13.77;9.88;;;28.40;99.90;29.30;99300.00;;;;4991195;28;87485;-68
2022/08/06 05:03:02;;;;;;;19.95;15.10;;;;;29.20;99300.00;;;;4996317;28;86934;-68
2022/08/06 05:05:34;;;;;;;14.45;9.80;;;28.40;99.90;29.40;99306.00;;;;5001973;28;88507;-68
2022/08/06 05:08:02;;;;;;;21.38;12.50;;;28.90;99.90;29.60;99308.00;;;;4994151;28;87635;-68
2022/08/06 05:10:37;;;;;;;13.20;9.50;;;28.80;99.90;29.70;99295.00;;;;4993680;28;86927;-68
2022/08/06 05:13:05;;;;;;;15.32;9.65;;;29.00;99.90;29.70;99293.00;;;;5002877;28;86964;-68
2022/08/06 05:15:41;;;;;;;15.60;9.85;;;29.30;99.90;29.70;99298.00;;;;4988777;28;88822;-68
2022/08/06 05:18:16;;;;;;;14.68;9.32;;;28.90;99.90;29.70;99305.00;;;;4991697;28;89890;-68
2022/08/06 05:20:50;;;;;;;16.52;9.45;;;28.90;99.90;29.80;99306.00;;;;5000318;28;87409;-68
2022/08/06 05:23:23;;;;;;;13.38;9.27;;;28.80;99.90;29.70;99300.00;;;;4994054;28;87029;-68
2022/08/06 05:25:50;;;;;;;14.65;8.55;;;30.10;99.90;29.70;99298.00;;;;4983611;28;87549;-68
2022/08/06 05:28:16;;;;;;;10.90;9.10;;;29.70;99.90;29.60;99315.00;;;;4993145;28;87273;-68
2022/08/06 05:30:46;;;;;;;16.02;9.13;;;29.10;99.90;29.80;99297.00;;;;4995083;28;87103;-68
2022/08/06 05:33:21;;;;;;;12.85;8.98;;;;;29.90;99299.00;;;;4992319;28;86288;-68
2022/08/06 05:35:48;;;;;;;14.15;8.25;;;;;30.00;99298.00;;;;4991059;28;87512;-68
2022/08/06 05:38:14;;;;;;;13.05;8.63;;;;;30.20;99304.00;;;;4993456;28;88433;-67
2022/08/06 05:40:41;;;;;;;13.40;8.18;;;;;30.30;99299.00;;;;4998969;28;88331;-67
2022/08/06 05:43:07;;;;;;;16.42;9.75;;;;;30.30;99307.00;;;;4993032;28;87061;-67
2022/08/06 05:45:34;;;;;;;14.52;9.10;;;;;30.20;99288.00;;;;4993661;28;88706;-67
2022/08/06 05:48:04;;;;;;;12.13;8.10;;;29.10;99.90;29.90;99288.00;;;;4984658;28;87362;-67
2022/08/06 05:50:34;;;;;;;11.80;9.15;;;29.10;99.90;29.90;99291.00;;;;4987214;28;87358;-68
2022/08/06 05:53:17;;;;;;;16.55;8.75;;;29.20;99.90;30.00;99296.00;;;;4989037;28;87482;-68
2022/08/06 05:56:02;;;;;;;12.18;8.48;;;29.10;99.90;30.20;99298.00;;;;4987028;28;89072;-67
2022/08/06 05:58:56;;;;;;;11.93;8.70;;;29.30;99.90;30.20;99294.00;;;;4987906;28;87345;-67
2022/08/06 06:01:24;;;;;;;14.48;9.15;;;29.20;99.90;30.00;99298.00;;;;4988689;28;87032;-67
2022/08/06 06:03:55;;;;;;;13.38;9.15;;;29.20;99.90;29.90;99291.00;;;;5000666;28;87160;-67
2022/08/06 06:06:22;;;;;;;12.00;8.65;;;29.20;99.90;30.10;99305.00;;;;4991833;28;89696;-67
2022/08/06 06:08:49;;;;;;;11.45;8.90;;;;;30.10;99309.00;;;;4983573;28;89411;-67
2022/08/06 06:11:17;;;;;;;16.45;9.43;;;29.10;99.90;29.80;99293.00;;;;4992125;28;87016;-66
2022/08/06 06:13:44;;;;;;;20.85;9.90;;;28.80;99.90;29.60;99300.00;;;;4984322;28;87086;-67
2022/08/06 06:16:52;;;;;;;17.13;10.23;;;28.50;99.90;29.20;99295.00;;;;4998442;28;88536;-67
2022/08/06 06:19:41;;;;;;;15.18;10.10;;;28.40;99.90;29.00;99296.00;;;;4993382;28;87477;-67
2022/08/06 06:22:23;;;;;;;19.35;9.38;;;28.20;99.90;28.60;99299.00;;;;4988714;28;87267;-67
2022/08/06 06:25:22;;;;;;;22.30;10.13;;;28.00;99.90;28.30;99294.00;;;;4995270;28;86191;-68
2022/08/06 06:28:13;;;;;;;14.20;9.15;;;27.80;99.90;28.00;99309.00;;;;4992541;28;88347;-68
2022/08/06 06:31:00;;;;;;;;;;;27.70;99.90;27.90;99294.00;;;;4991489;28;89342;-67
2022/08/06 06:33:44;;;;;;;15.63;10.05;;;27.50;99.90;27.80;99288.00;;;;4991617;28;88419;-68
2022/08/06 06:36:32;;;;;;;16.48;10.73;;;27.50;99.90;27.80;99289.00;;;;4988665;28;87025;-68
2022/08/06 06:39:28;;;;;;;20.15;10.10;;;27.40;99.90;27.80;99288.00;;;;4956270;28;90652;-68
2022/08/06 06:42:08;;;;;;;16.83;8.90;;;27.40;99.90;27.70;99289.00;;;;4971438;28;88860;-68
2022/08/06 06:45:00;;;;;;;19.27;8.63;;;27.20;99.90;27.60;99282.00;;;;4999513;28;87436;-68
2022/08/06 06:47:45;;;;;;;19.42;9.35;;;27.30;99.90;27.70;99284.00;;;;4989941;28;87009;-68
2022/08/06 06:50:31;;;;;;;17.55;8.75;;;27.60;99.90;27.80;99285.00;;;;4965568;28;88708;-68
2022/08/06 06:52:58;;;;;;;14.80;8.77;;;27.60;99.90;27.90;99285.00;;;;4986794;28;90394;-67
2022/08/06 06:55:40;;;;;;;15.40;8.80;;;27.90;99.90;28.00;99289.00;;;;4997263;28;86941;-68
2022/08/06 06:58:14;;;;;;;15.48;8.43;;;27.80;99.90;28.10;99289.00;;;;4998927;28;87097;-67
2022/08/06 07:00:42;;;;;;;14.70;8.38;;;27.90;99.90;28.20;99286.00;;;;4989547;28;87900;-69
2022/08/06 07:03:09;;;;;;;18.55;7.97;;;27.80;99.90;28.20;99275.00;;;;4993808;28;89346;-67
2022/08/06 07:05:40;;;;;;;11.43;7.95;;;28.00;99.90;28.20;99278.00;;;;4994820;28;87043;-67
2022/08/06 07:08:07;;;;;;;;;;;28.00;99.90;28.30;99283.00;;;;5001094;28;88108;-68
2022/08/06 07:10:35;;;;;;;11.32;7.38;;;27.90;99.90;28.20;99287.00;;;;4993799;28;87666;-67
2022/08/06 07:13:02;;;;;;;16.60;8.07;;;27.90;99.90;28.20;99290.00;;;;5000517;28;87469;-67
2022/08/06 07:15:29;;;;;;;11.15;7.28;;;;;28.20;99278.00;;;;5000694;28;86868;-67
2022/08/06 07:17:57;;;;;;;20.52;9.23;;;28.10;99.90;28.40;99288.00;;;;4988776;28;86321;-67
2022/08/06 07:20:28;;;;;;;11.68;7.20;;;28.20;99.90;28.50;99284.00;;;;4983475;28;88671;-67
2022/08/06 07:22:59;;;;;;;12.15;7.25;;;28.50;99.90;28.60;99289.00;;;;4997437;28;87290;-68
2022/08/06 07:25:26;;;;;;;;;;;28.30;99.90;28.60;99285.00;;;;5001938;28;88215;-67
2022/08/06 07:27:52;;;;;;;10.02;7.82;;;;;28.60;99289.00;;;;4993041;28;86856;-67
2022/08/06 07:30:21;;;;;;;12.02;6.80;;;28.40;99.90;28.70;99271.00;;;;4991702;28;87926;-67
2022/08/06 07:32:49;;;;;;;13.35;7.53;;;28.50;99.90;28.80;99280.00;;;;4988453;28;87435;-67
2022/08/06 07:35:19;;;;;;;14.48;7.97;;;28.40;99.90;28.80;99277.00;;;;4986776;28;86954;-67
2022/08/06 07:38:03;;;;;;;9.95;7.20;;;28.50;99.90;28.80;99279.00;;;;4987307;28;86915;-68
2022/08/06 07:40:52;;;;;;;10.23;7.00;;;28.40;99.90;28.80;99270.00;;;;4987348;28;88459;-68
2022/08/06 07:43:27;;;;;;;18.00;7.40;;;28.50;99.90;28.80;99281.00;;;;4993820;28;87024;-67
2022/08/06 07:45:56;;;;;;;15.02;6.57;;;28.50;99.90;28.80;99279.00;;;;4993265;28;87058;-68
2022/08/06 07:48:31;;;;;;;15.55;7.07;;;28.60;99.90;28.80;99286.00;;;;4992474;28;87366;-67
2022/08/06 07:50:59;;;;;;;11.82;6.63;;;28.50;99.90;28.80;99274.00;;;;4967226;28;91243;-67
2022/08/06 07:53:27;;;;;;;12.93;6.65;;;28.30;99.90;28.70;99269.00;;;;4985756;28;88362;-67
2022/08/06 07:55:53;;;;;;;8.05;6.40;;;;;28.50;99268.00;;;;4995342;28;86991;-68
2022/08/06 07:58:20;;;;;;;8.88;6.85;;;;;28.60;99271.00;;;;4991504;28;87173;-67
2022/08/06 08:00:48;;;;;;;12.23;6.25;;;;;28.80;99270.00;;;;4990271;28;87723;-67
2022/08/06 08:06:17;;;;;;;13.30;6.93;;;28.70;99.90;29.00;99267.00;;;;4972833;28;87012;-67
2022/08/06 08:08:45;;;;;;;11.13;6.55;;;28.70;99.90;29.10;99269.00;;;;4986830;28;86687;-67
2022/08/06 08:11:14;;;;;;;8.18;6.05;;;28.80;99.90;29.20;99270.00;;;;4989452;28;87660;-68
2022/08/06 08:13:42;;;;;;;14.63;5.90;;;;;29.10;99273.00;;;;4964388;28;87480;-68
2022/08/06 08:16:12;;;;;;;11.63;6.00;;;28.70;99.90;29.00;99268.00;;;;4985560;28;87920;-68
2022/08/06 08:18:40;;;;;;;12.23;5.72;;;28.80;99.90;29.10;99264.00;;;;4988438;28;88171;-67
2022/08/06 08:21:08;;;;;;;10.95;5.80;;;28.90;99.90;29.20;99266.00;;;;4990176;28;88993;-67
2022/08/06 08:23:36;;;;;;;9.23;6.25;;;28.90;99.90;29.20;99269.00;;;;4989893;28;88720;-68
2022/08/06 08:26:03;;;;;;;12.05;5.68;;;28.90;99.90;29.30;99266.00;;;;4989222;28;87153;-68
2022/08/06 08:28:31;;;;;;;10.57;5.50;;;;;29.30;99265.00;;;;4989732;28;87485;-68
2022/08/06 08:30:58;;;;;;;12.63;5.82;;;;;29.40;99270.00;;;;4990478;28;87568;-68
2022/08/06 08:33:25;;;;;;;11.15;5.38;;;29.20;99.90;29.50;99268.00;;;;4973941;28;89058;-68
2022/08/06 08:35:52;;;;;;;8.98;5.43;;;;;29.70;99267.00;;;;4990309;28;87674;-67
2022/08/06 08:38:19;;;;;;;8.60;4.85;;;;;29.80;99265.00;;;;4988976;28;87419;-68
2022/08/06 08:40:50;;;;;;;19.30;5.45;;;29.50;99.40;29.80;99266.00;;;;4988133;28;88529;-68
2022/08/06 08:43:34;;;;;;;10.13;5.03;;;29.40;99.10;29.80;99265.00;;;;4991301;28;88453;-67
2022/08/06 08:46:02;;;;;;;9.25;6.53;;;29.40;99.30;29.80;99254.00;;;;4992198;28;87462;-68
2022/08/06 08:48:30;;;;;;;17.40;6.20;;;29.30;99.60;29.70;99265.00;;;;4986966;28;87064;-68
2022/08/06 08:50:59;;;;;;;8.68;5.43;;;29.40;99.70;29.70;99254.00;;;;4993188;28;88099;-68
2022/08/06 08:53:52;;;;;;;9.68;6.25;;;28.90;99.90;29.80;99263.00;;;;4995463;28;87155;-68
2022/08/06 08:56:19;;;;;;;9.73;6.07;;;;;29.90;99253.00;;;;4987812;28;87973;-68
2022/08/06 08:58:46;;;;;;;7.35;5.30;;;29.50;99.40;29.90;99256.00;;;;4997281;28;86158;-68
2022/08/06 09:01:12;;;;;;;8.73;5.70;;;;;29.80;99249.00;;;;4993797;28;88845;-69
2022/08/06 09:03:40;;;;;;;14.00;5.57;;;29.40;99.50;29.80;99245.00;;;;4986746;28;87857;-68
2022/08/06 09:06:08;;;;;;;12.85;5.53;;;29.50;99.90;29.90;99248.00;;;;4986204;28;87779;-68
2022/08/06 09:08:36;;;;;;;8.85;5.57;;;29.60;99.40;30.00;99245.00;;;;4990232;28;87565;-68
2022/08/06 09:11:04;;;;;;;8.63;5.40;;;29.60;99.30;30.00;99252.00;;;;4989158;28;88644;-67
2022/08/06 09:13:33;;;;;;;11.63;5.32;;;29.70;98.30;30.10;99246.00;;;;4980959;28;87172;-67
2022/08/06 09:16:00;;;;;;;10.95;5.32;;;;;30.10;99246.00;;;;4994560;28;87619;-67
2022/08/06 09:18:26;;;;;;;13.48;5.35;;;29.70;99.90;30.10;99255.00;;;;4987456;28;87055;-68
2022/08/06 09:20:53;;;;;;;8.73;4.75;;;29.90;98.10;30.20;99248.00;;;;4980791;28;88249;-67
2022/08/06 09:23:20;;;;;;;8.63;5.50;;;;;30.40;99238.00;;;;4987675;28;88459;-66
2022/08/06 09:25:50;;;;;;;9.93;5.75;;;30.00;98.10;30.40;99250.00;;;;5002342;28;86981;-68
2022/08/06 09:28:55;;;;;;;12.17;4.93;;;30.10;97.80;30.50;99241.00;;;;4995711;28;87030;-68
2022/08/06 09:31:21;;;;;;;8.02;5.60;;;30.10;97.50;30.50;99239.00;;;;4965597;28;91134;-67
2022/08/06 09:34:02;;;;;;;12.60;4.78;;;30.20;97.50;30.60;99233.00;;;;4991014;28;88144;-67
2022/08/06 09:36:42;;;;;;;8.23;5.10;;;30.30;97.40;30.70;99239.00;;;;4993809;28;88030;-68
2022/08/06 09:39:08;;;;;;;7.13;4.88;;;;;30.70;99238.00;;;;4992752;28;87184;-68
2022/08/06 09:41:49;;;;;;;11.40;5.03;;;30.20;96.90;30.60;99242.00;;;;4988663;28;87385;-69
2022/08/06 09:44:16;;;;;;;9.52;5.07;;;;;30.70;99242.00;;;;4986944;28;87294;-68
2022/08/06 09:46:49;;;;;;;9.02;4.72;;;30.50;96.50;30.90;99234.00;;;;4988492;28;88036;-68
2022/08/06 09:49:18;;;;;;;8.68;5.35;;;30.50;96.20;31.00;99235.00;;;;4984416;28;86233;-70
2022/08/06 09:51:45;;;;;;;6.80;4.70;;;;;31.00;99227.00;;;;4993902;28;87569;-67
2022/08/06 09:54:15;;;;;;;11.15;5.22;;;30.70;96.10;31.10;99233.00;;;;4998819;28;87494;-68
2022/08/06 09:56:43;;;;;;;13.35;5.30;;;30.70;96.00;31.20;99230.00;;;;5000409;28;88097;-67
2022/08/06 09:59:11;;;;;;;12.20;5.38;;;30.60;95.90;31.10;99232.00;;;;4995249;28;86895;-67
2022/08/06 10:01:44;;;;;;;15.60;5.47;;;30.50;96.00;31.00;99220.00;;;;4989705;28;87731;-67
2022/08/06 10:04:26;;;;;;;8.52;5.40;;;30.60;96.10;31.00;99227.00;;;;4987092;28;87406;-67
2022/08/06 10:06:54;;;;;;;9.00;5.60;;;;;31.10;99232.00;;;;4976735;28;87078;-67
2022/08/06 10:09:21;;;;;;;7.80;5.15;;;;;31.10;99228.00;;;;5012344;28;87115;-67
2022/08/06 10:11:47;;;;;;;9.55;5.53;;;;;31.10;99231.00;;;;4996125;28;87811;-67
2022/08/06 10:14:32;;;;;;;9.35;4.93;;;30.50;95.30;31.00;99225.00;;;;4996110;28;87465;-67
2022/08/06 10:17:20;;;;;;;11.30;4.88;;;30.60;95.40;31.00;99223.00;;;;4998117;28;87780;-67
2022/08/06 10:20:13;;;;;;;8.27;5.68;;;30.40;99.90;31.10;99217.00;;;;4996411;28;86922;-67
2022/08/06 10:23:00;;;;;;;8.55;4.63;;;30.70;98.60;31.20;99222.00;;;;4987241;28;90022;-67
2022/08/06 10:25:30;;;;;;;16.58;6.18;;;31.40;99.90;31.20;99220.00;;;;4998712;28;88855;-67
2022/08/06 10:27:58;;;;;;;9.98;5.57;;;30.80;94.60;31.20;99211.00;;;;4995727;28;86919;-67
2022/08/06 10:30:26;;;;;;;12.77;7.20;;;31.30;95.00;31.30;99217.00;;;;4975924;28;87046;-67
2022/08/06 10:32:55;;;;;;;11.50;6.38;;;30.90;94.60;31.30;99209.00;;;;4989647;28;88971;-67
2022/08/06 10:35:23;;;;;;;11.65;5.13;;;30.90;94.90;31.30;99214.00;;;;4992367;28;88845;-67
2022/08/06 10:37:59;;;;;;;10.90;5.13;;;30.80;94.90;31.30;99203.00;;;;4994063;28;87449;-67
2022/08/06 10:40:27;;;;;;;11.45;5.00;;;30.80;95.00;31.20;99195.00;;;;5001439;28;86314;-67
2022/08/06 10:42:53;;;;;;;9.05;5.47;;;;;31.30;99190.00;;;;4978316;28;87964;-67
2022/08/06 10:45:20;;;;;;;9.93;4.82;;;31.00;99.90;31.30;99193.00;;;;4997470;28;87510;-67
2022/08/06 10:47:47;;;;;;;7.05;5.50;;;30.80;94.30;31.20;99195.00;;;;4987649;28;87941;-67
2022/08/06 10:50:14;;;;;;;7.75;4.93;;;30.80;94.40;31.20;99187.00;;;;4983260;28;86919;-67
2022/08/06 10:52:43;;;;;;;11.45;5.45;;;30.80;94.40;31.30;99184.00;;;;4992165;28;88806;-67
2022/08/06 10:55:10;;;;;;;6.70;4.55;;;31.30;99.90;31.30;99178.00;;;;4983973;28;87448;-60
2022/08/06 10:57:40;;;;;;;7.32;5.57;;;30.90;94.60;31.30;99180.00;;;;4983745;28;87103;-61
2022/08/06 11:00:08;;;;;;;12.25;6.18;;;31.60;97.70;31.40;99178.00;;;;4986201;28;87397;-61
2022/08/06 11:03:27;;;;;;;9.30;5.22;;;30.80;94.40;31.20;99175.00;;;;4991719;28;87792;-61
2022/08/06 11:06:15;;;;;;;7.43;5.68;;;30.70;94.70;31.20;99176.00;;;;4983032;28;86422;-62
2022/08/06 11:09:36;;;;;;;18.77;5.65;;;30.50;94.70;31.10;99181.00;;;;4991453;28;88069;-61
2022/08/06 11:12:46;;;;;;;11.33;5.20;;;30.60;94.60;31.00;99173.00;;;;4997474;28;87653;-61
2022/08/06 11:15:13;;;;;;;9.57;5.07;;;30.60;94.20;31.10;99172.00;;;;4994041;28;89613;-61
2022/08/06 11:17:47;;;;;;;12.05;5.38;;;30.80;94.10;31.20;99169.00;;;;4989264;28;88236;-61
2022/08/06 11:20:32;;;;;;;7.53;4.65;;;30.60;99.90;31.30;99158.00;;;;4991569;28;87272;-61
2022/08/06 11:23:00;;;;;;;7.30;4.70;;;30.80;94.00;31.30;99170.00;;;;4991105;28;86995;-61
2022/08/06 11:25:52;;;;;;;11.88;5.57;;;30.80;94.00;31.30;99170.00;;;;4972363;28;87832;-61
2022/08/06 11:28:39;;;;;;;10.07;4.80;;;31.00;93.60;31.40;99159.00;;;;4989689;28;88248;-61